Latest Weather Observations for Flinders Island Airport

IDT60801

Issued at 6:31 pm EST Saturday 25 June 2016 (issued every 30 minutes, with the page automatically refreshed every 10 minutes)

About weather observations | Map of weather stations | Latest weather observations for TAS | Other Formats
Station Details ID: 099005 Name: FLINDERS ISLAND AIRPORT Lat: -40.09 Lon: 148.00 Height: 9.0 m
Data from the previous 72 hours. | See also: Recent months at Flinders Island Airport
Date/Time
EST
Temp
°C
App
Temp
°C
Dew
Point
Rel
Hum
%
Delta-T
°C
Wind Press
QNH
hPa
Press
MSL
hPa
Rain
since 9 am
mm
Dir
 
Spd
km/h
Gust
km/h
Spd
kts
Gust
kts
25/06:30pm 10.7 4.2 6.6 76 1.9 WSW 30 39 16 21 1018.9 1018.9 0.0
25/06:00pm 10.1 5.6 5.9 75 1.9 SW 19 24 10 13 1019.0 1019.0 0.0
25/05:30pm 9.8 4.5 5.2 73 2.1 SW 22 28 12 15 1019.0 1019.0 0.0
25/05:00pm 9.6 3.5 4.6 71 2.2 WSW 26 32 14 17 1019.0 1019.0 0.0
25/04:30pm 9.6 2.9 3.8 67 2.5 WSW 28 35 15 19 1018.8 1018.8 0.0
25/04:00pm 10.2 3.4 3.0 61 3.1 WSW 28 35 15 19 1018.6 1018.6 0.0
25/03:30pm 10.6 4.1 2.7 58 3.4 SW 26 32 14 17 1018.4 1018.4 0.0
25/03:00pm 10.8 4.4 3.4 60 3.2 SW 26 32 14 17 1018.4 1018.4 0.0
25/02:30pm 10.7 4.8 2.0 55 3.7 SW 22 30 12 16 1018.2 1018.2 0.0
25/02:00pm 10.9 4.7 2.0 54 3.8 SW 24 30 13 16 1018.2 1018.2 0.0
25/01:30pm 10.9 5.1 2.5 56 3.6 SW 22 28 12 15 1018.0 1018.0 0.0
25/01:00pm 10.7 3.7 1.8 54 3.7 SW 28 33 15 18 1018.0 1018.0 0.0
25/12:30pm 10.6 3.6 1.7 54 3.7 SSW 28 33 15 18 1018.1 1018.1 0.0
25/12:00pm 11.0 4.6 3.3 59 3.4 SW 26 33 14 18 1018.4 1018.4 0.0
25/11:30am 10.4 3.4 1.8 55 3.6 SW 28 33 15 18 1018.6 1018.6 0.0
25/11:00am 10.4 4.1 1.8 55 3.6 SW 24 32 13 17 1018.7 1018.7 0.0
25/10:30am 10.3 3.3 1.9 56 3.5 SW 28 33 15 18 1018.6 1018.6 0.0
25/10:00am 10.0 2.2 1.4 55 3.6 SSW 32 39 17 21 1018.3 1018.3 0.0
25/09:30am 9.8 2.5 2.2 59 3.2 SSW 30 37 16 20 1017.8 1017.9 0.0
25/09:00am 9.5 1.7 1.9 59 3.2 SW 32 39 17 21 1017.4 1017.5 0.8
25/08:30am 9.2 1.3 1.1 57 3.3 SSW 32 37 17 20 1017.2 1017.3 0.8
25/08:00am 8.9 1.0 1.3 59 3.1 SW 32 37 17 20 1016.8 1016.9 0.8
25/07:30am 8.9 1.0 1.3 59 3.1 SW 32 39 17 21 1016.5 1016.6 0.8
25/07:00am 8.8 0.9 1.2 59 3.1 SW 32 39 17 21 1016.1 1016.2 0.8
25/06:30am 8.8 1.1 2.2 63 2.8 SW 32 37 17 20 1015.7 1015.8 0.8
25/06:00am 9.0 1.6 1.7 60 3.0 SSW 30 39 16 21 1015.2 1015.3 0.8
25/05:30am 8.7 1.8 2.5 65 2.6 SW 28 39 15 21 1014.8 1014.9 0.8
25/05:00am 9.0 2.1 2.3 63 2.8 SSW 28 35 15 19 1014.6 1014.7 0.8
25/04:30am 9.0 2.6 3.0 66 2.6 SSW 26 35 14 19 1014.4 1014.5 0.8
25/04:00am 8.6 1.7 2.6 66 2.5 SW 28 35 15 19 1014.0 1014.1 0.8
25/03:30am 8.7 1.0 2.3 64 2.7 SW 32 37 17 20 1013.8 1013.9 0.8
25/03:00am 8.9 1.1 1.8 61 2.9 SSW 32 39 17 21 1013.6 1013.7 0.8
25/02:30am 9.1 1.0 1.0 57 3.3 SW 33 41 18 22 1013.1 1013.2 0.8
25/02:00am 9.2 0.9 2.1 61 3.0 SW 35 41 19 22 1012.6 1012.7 0.8
25/01:30am 9.1 1.6 1.0 57 3.3 SSW 30 37 16 20 1012.0 1012.1 0.8
25/01:00am 9.1 1.6 1.3 58 3.2 SW 30 35 16 19 1011.7 1011.8 0.8
25/12:30am 9.2 1.3 2.1 61 3.0 SW 33 39 18 21 1011.1 1011.2 0.8
25/12:00am 9.5 1.7 2.6 62 2.9 SW 33 41 18 22 1010.8 1010.8 0.8
 
Date/Time
EST
Temp
°C
App
Temp
°C
Dew
Point
Rel
Hum
%
Delta-T
°C
Wind Press
QNH
hPa
Press
MSL
hPa
Rain
since 9 am
mm
Dir
 
Spd
km/h
Gust
km/h
Spd
kts
Gust
kts
24/11:30pm 9.4 1.5 2.5 62 2.9 SW 33 41 18 22 1010.3 1010.3 0.8
24/11:00pm 9.7 2.0 2.1 59 3.2 SSW 32 39 17 21 1009.8 1009.8 0.8
24/10:30pm 9.7 2.3 3.9 67 2.5 SW 32 39 17 21 1009.3 1009.3 0.8
24/10:00pm 9.9 2.4 3.6 65 2.8 SW 32 41 17 22 1008.8 1008.8 0.8
24/09:30pm 9.8 2.7 3.8 66 2.6 SW 30 37 16 20 1008.3 1008.3 0.8
24/09:00pm 9.6 2.0 4.0 68 2.5 SW 33 41 18 22 1007.8 1007.8 0.8
24/08:30pm 9.6 2.2 3.8 67 2.5 SW 32 39 17 21 1007.3 1007.3 0.8
24/08:00pm 9.6 1.9 3.6 66 2.6 SW 33 41 18 22 1006.8 1006.8 0.8
24/07:30pm 9.7 1.0 3.9 67 2.5 SW 39 52 21 28 1006.0 1006.0 0.8
24/07:00pm 9.8 1.9 4.2 68 2.5 SW 35 48 19 26 1005.4 1005.4 0.8
24/06:30pm 9.4 -0.2 3.6 67 2.5 WSW 43 54 23 29 1004.7 1004.7 0.8
24/06:00pm 9.7 1.8 4.5 70 2.3 WSW 35 44 19 24 1004.1 1004.1 0.8
24/05:30pm 9.6 1.6 4.0 68 2.5 WSW 35 46 19 25 1003.5 1003.5 0.8
24/05:00pm 9.5 1.3 4.5 71 2.2 WSW 37 44 20 24 1002.8 1002.8 0.8
24/04:30pm 9.0 1.1 4.6 74 1.9 W 35 43 19 23 1002.3 1002.3 0.8
24/04:00pm 9.1 0.4 4.1 71 2.2 WSW 39 52 21 28 1001.8 1001.8 0.8
24/03:30pm 10.0 0.5 4.8 70 2.3 WSW 44 56 24 30 1001.4 1001.4 0.8
24/03:00pm 9.7 1.0 3.9 67 2.6 SW 39 52 21 28 1000.9 1000.9 0.8
24/02:30pm 9.7 0.0 4.1 68 2.5 SW 44 54 24 29 1000.4 1000.4 0.8
24/02:09pm 9.8 1.7 5.2 73 2.1 WSW 37 54 20 29 999.9 999.9 0.8
24/02:00pm 10.0 1.6 5.8 75 1.9 W 39 52 21 28 999.7 999.7 0.8
24/01:52pm 9.6 4.1 6.1 79 1.6 W 24 41 13 22 999.7 999.7 0.8
24/01:30pm 8.4 4.9 5.3 81 1.4 WNW 13 20 7 11 999.7 999.7 0.8
24/01:13pm 8.1 0.5 4.1 76 1.7 W 33 54 18 29 999.7 999.7 0.8
24/01:07pm 9.1 2.3 4.9 75 1.9 W 30 54 16 29 999.5 999.5 0.6
24/01:00pm 9.9 5.2 5.9 76 1.9 W 20 26 11 14 999.5 999.5 0.6
24/12:30pm 9.5 4.3 5.7 77 1.7 WSW 22 28 12 15 999.4 999.4 0.6
24/12:00pm 9.2 4.3 5.0 75 1.9 W 20 24 11 13 999.5 999.5 0.6
24/11:30am 9.2 4.0 5.4 77 1.7 WSW 22 28 12 15 999.6 999.6 0.6
24/11:00am 8.7 3.0 5.1 78 1.6 W 24 32 13 17 999.4 999.4 0.6
24/10:30am 9.1 4.0 6.0 81 1.4 WSW 22 28 12 15 999.4 999.4 0.6
24/10:00am 8.1 1.8 5.9 86 1.0 WSW 28 35 15 19 999.2 999.2 0.6
24/09:30am 7.6 0.9 5.6 87 0.9 W 30 35 16 19 999.0 999.0 0.6
24/09:00am 7.9 0.7 5.2 83 1.2 WSW 32 48 17 26 998.6 998.6 4.6
24/08:30am 8.2 1.5 5.5 83 1.2 W 30 35 16 19 998.2 998.2 4.6
24/08:00am 7.5 1.7 4.3 80 1.4 W 24 35 13 19 998.4 998.4 4.6
24/07:38am 8.2 0.7 4.2 76 1.7 WNW 33 50 18 27 998.1 998.1 4.6
24/07:30am 8.5 3.4 4.3 75 1.8 NW 20 33 11 18 998.0 998.0 4.6
24/07:00am 8.3 3.4 4.3 76 1.8 NNW 19 33 10 18 997.4 997.4 4.6
24/06:30am 8.9 3.7 3.5 69 2.3 W 20 28 11 15 997.1 997.1 4.6
24/06:00am 8.6 3.5 3.0 68 2.4 W 19 26 10 14 996.7 996.7 4.6
24/05:30am 8.9 3.4 3.9 71 2.2 W 22 30 12 16 996.4 996.4 4.6
24/05:00am 8.7 3.3 4.5 75 1.9 W 22 30 12 16 996.3 996.3 4.6
24/04:30am 9.1 3.9 5.5 78 1.6 W 22 30 12 16 996.2 996.2 4.6
24/04:00am 8.3 3.7 5.8 84 1.1 WNW 19 26 10 14 996.0 996.0 4.6
24/03:30am 8.6 3.9 6.1 84 1.1 W 20 28 11 15 995.8 995.8 4.6
24/03:00am 8.6 3.3 6.6 87 0.9 W 24 30 13 16 996.2 996.2 4.6
24/02:30am 7.9 5.4 6.4 90 0.7 NNW 9 11 5 6 996.0 996.0 4.6
24/02:00am 7.8 5.2 6.1 89 0.8 NW 9 15 5 8 996.2 996.2 4.4
24/01:30am 7.6 4.9 5.7 88 0.9 NW 9 11 5 6 996.2 996.2 4.4
24/01:00am 7.6 3.4 5.6 87 0.9 WNW 17 26 9 14 996.4 996.4 4.2
24/12:58am 7.7 3.1 5.7 87 0.9 WNW 19 30 10 16 996.5 996.5 4.2
24/12:31am 7.9 -0.8 6.2 89 0.8 WSW 41 50 22 27 996.5 996.5 4.2
24/12:30am 7.8 -0.9 6.1 89 0.8 WSW 41 50 22 27 996.5 996.5 4.2
24/12:01am 8.2 0.6 5.8 85 1.1 W 35 57 19 31 996.4 996.4 2.4
24/12:00am 8.1 1.0 5.6 84 1.1 W 32 57 17 31 996.3 996.3 2.4
 
Date/Time
EST
Temp
°C
App
Temp
°C
Dew
Point
Rel
Hum
%
Delta-T
°C
Wind Press
QNH
hPa
Press
MSL
hPa
Rain
since 9 am
mm
Dir
 
Spd
km/h
Gust
km/h
Spd
kts
Gust
kts
23/11:57pm 8.4 3.2 5.7 83 1.2 W 22 57 12 31 996.5 996.5 2.0
23/11:30pm 9.6 5.5 6.1 79 1.6 W 17 22 9 12 996.1 996.1 1.4
23/11:00pm 9.2 3.0 6.1 81 1.4 WSW 28 35 15 19 996.3 996.3 1.4
23/10:30pm 9.5 5.0 6.2 80 1.5 W 19 26 10 14 996.1 996.1 1.4
23/10:00pm 9.4 3.9 6.1 80 1.5 W 24 32 13 17 996.0 996.0 1.4
23/09:30pm 9.7 3.2 6.4 80 1.5 W 30 37 16 20 995.7 995.7 1.4
23/09:00pm 9.8 2.9 6.5 80 1.6 W 32 41 17 22 995.5 995.5 1.4
23/08:30pm 10.2 3.9 7.3 82 1.4 W 30 43 16 23 995.5 995.5 1.4
23/08:00pm 10.4 3.3 8.0 85 1.2 WNW 35 48 19 26 994.9 994.9 1.4
23/07:31pm 10.4 2.4 7.6 83 1.3 WNW 39 57 21 31 994.8 994.8 1.4
23/07:30pm 10.4 2.1 7.6 83 1.3 WNW 41 57 22 31 994.8 994.8 1.4
23/07:19pm 10.3 1.5 7.4 82 1.4 WNW 43 61 23 33 994.4 994.4 1.4
23/07:18pm 10.4 1.5 7.5 82 1.4 WNW 44 61 24 33 994.4 994.4 1.4
23/07:00pm 10.5 0.6 6.8 78 1.8 WNW 48 67 26 36 994.9 994.9 1.0
23/06:57pm 10.6 1.4 6.4 75 2.0 NW 44 67 24 36 994.9 994.9 1.0
23/06:51pm 13.5 6.3 6.1 61 3.5 NNW 33 57 18 31 994.0 994.0 0.0
23/06:30pm 14.2 7.7 4.8 53 4.4 N 28 46 15 25 993.2 993.2 0.0
23/06:04pm 14.2 7.8 5.3 55 4.2 N 28 48 15 26 993.1 993.1 0.0
23/06:00pm 14.3 7.5 5.1 54 4.4 N 30 43 16 23 993.2 993.2 0.0
23/05:30pm 14.1 7.5 6.0 58 3.9 N 30 48 16 26 993.4 993.4 0.0
23/05:13pm 13.8 7.7 6.7 62 3.4 N 28 46 15 25 993.6 993.6 0.0
23/05:00pm 13.7 7.6 6.6 62 3.4 N 28 39 15 21 993.5 993.5 0.0
23/04:30pm 14.0 7.1 6.4 60 3.6 NNW 32 50 17 27 993.9 993.9 0.0
23/04:16pm 14.1 7.6 6.5 60 3.7 NNW 30 48 16 26 994.1 994.1 0.0
23/04:00pm 14.0 7.9 6.8 62 3.5 NNW 28 39 15 21 994.2 994.2 0.0
23/03:40pm 14.1 8.1 6.9 62 3.5 NNW 28 46 15 25 994.4 994.4 0.0
23/03:30pm 14.3 7.5 6.9 61 3.6 NNW 32 44 17 24 994.5 994.5 0.0
23/03:00pm 14.3 7.8 6.4 59 3.8 NNW 30 44 16 24 994.8 994.8 0.0
23/02:30pm 14.5 7.6 6.6 59 3.8 NNW 32 54 17 29 995.0 995.0 0.0
23/02:00pm 14.3 6.8 6.4 59 3.8 NNW 35 59 19 32 995.3 995.3 0.0
23/01:30pm 14.3 6.4 6.4 59 3.8 NNW 37 59 20 32 995.8 995.8 0.0
23/01:00pm 14.3 7.4 6.6 60 3.8 NNW 32 52 17 28 996.3 996.3 0.0
23/12:41pm 14.4 7.4 7.0 61 3.6 NNW 33 50 18 27 996.6 996.6 0.0
23/12:30pm 14.4 6.9 6.5 59 3.8 NNW 35 50 19 27 996.9 996.9 0.0
23/12:00pm 14.2 7.3 6.6 60 3.7 NNW 32 52 17 28 997.5 997.5 0.0
23/11:48am 13.9 7.4 6.5 61 3.6 NNW 30 48 16 26 997.8 997.8 0.0
23/11:30am 13.8 6.8 6.9 63 3.3 NNW 33 46 18 25 998.2 998.2 0.0
23/11:03am 14.3 7.0 7.4 63 3.4 NNW 35 57 19 31 998.7 998.7 0.0
23/11:00am 14.3 7.4 7.4 63 3.4 NW 33 50 18 27 998.8 998.8 0.0
23/10:30am 14.3 6.2 7.1 62 3.5 NW 39 59 21 32 999.1 999.1 0.0
23/10:04am 14.1 5.0 6.9 62 3.5 NW 44 63 24 34 999.3 999.3 0.0
23/10:00am 14.3 4.8 6.9 61 3.6 NW 46 63 25 34 999.4 999.4 0.0
23/09:30am 14.1 5.6 6.9 62 3.5 NW 41 61 22 33 999.6 999.6 0.0
23/09:12am 13.9 6.6 7.0 63 3.4 NW 35 56 19 30 999.6 999.6 0.0
23/09:00am 13.9 6.6 7.4 65 3.2 NW 35 52 19 28 999.6 999.6 1.2
23/08:30am 13.5 6.7 7.7 68 2.9 NNW 33 56 18 30 999.6 999.6 1.2
23/08:06am 13.4 5.1 7.8 69 2.8 NW 41 59 22 32 999.8 999.8 1.2
23/08:00am 13.4 5.1 7.6 68 2.9 NW 41 57 22 31 999.8 999.8 1.2
23/07:30am 13.0 5.1 7.7 70 2.6 NW 39 57 21 31 999.7 999.7 1.2
23/07:23am 13.0 5.1 7.9 71 2.5 NW 39 57 21 31 999.5 999.5 1.2
23/07:00am 13.1 5.2 8.0 71 2.5 NW 39 54 21 29 999.5 999.5 1.2
23/06:34am 13.0 4.7 7.9 71 2.5 NW 41 59 22 32 999.6 999.6 1.2
23/06:30am 13.1 5.2 8.0 71 2.5 NW 39 54 21 29 999.5 999.5 1.2
23/06:00am 13.0 5.2 8.1 72 2.4 NW 39 52 21 28 999.6 999.6 1.2
23/05:30am 12.9 6.5 8.6 75 2.1 NNW 32 52 17 28 999.5 999.5 1.2
23/05:10am 12.8 6.5 8.9 77 2.0 NW 32 50 17 27 999.6 999.6 1.2
23/05:00am 12.8 6.5 8.9 77 2.0 NW 32 48 17 26 999.6 999.6 1.2
23/04:30am 12.8 4.8 9.1 78 1.9 WNW 41 59 22 32 999.5 999.5 1.2
23/04:23am 12.7 4.8 9.3 80 1.7 WNW 41 59 22 32 999.6 999.6 1.2
23/04:00am 12.6 4.8 9.6 82 1.5 WNW 41 54 22 29 999.9 999.9 1.2
23/03:39am 12.7 6.1 10.1 84 1.3 WNW 35 54 19 29 1000.2 1000.2 1.2
23/03:30am 12.5 5.5 10.0 85 1.3 WNW 37 48 20 26 1000.2 1000.2 1.2
23/03:04am 12.4 5.0 10.0 85 1.2 WNW 39 57 21 31 1000.7 1000.7 1.2
23/03:00am 12.4 4.7 10.1 86 1.2 WNW 41 57 22 31 1000.8 1000.8 1.2
23/02:58am 12.4 5.1 10.1 86 1.2 WNW 39 57 21 31 1000.8 1000.8 1.2
23/02:30am 12.2 4.5 10.1 87 1.1 WNW 41 54 22 29 1001.1 1001.1 1.2
23/02:15am 11.8 5.8 10.2 90 0.8 WNW 32 50 17 27 1001.3 1001.3 1.2
23/02:00am 11.2 5.1 9.6 90 0.8 WNW 32 43 17 23 1001.4 1001.4 1.2
23/01:56am 11.1 5.3 9.4 89 0.9 WNW 30 41 16 22 1001.5 1001.5 1.2
23/01:43am 11.4 5.2 9.5 88 1.0 WNW 32 41 17 22 1001.7 1001.7 1.0
23/01:30am 11.7 5.5 9.3 85 1.2 WNW 32 43 17 23 1001.6 1001.6 0.2
23/01:05am 11.9 6.4 9.3 84 1.3 WNW 28 48 15 26 1001.7 1001.7 0.2
23/01:00am 11.6 6.9 9.2 85 1.2 WNW 24 33 13 18 1001.7 1001.7 0.2
23/12:30am 12.1 6.4 8.4 78 1.8 WNW 28 37 15 20 1002.1 1002.1 0.2
23/12:00am 11.6 6.4 7.3 75 2.1 WNW 24 37 13 20 1002.3 1002.3 0.2
 
Date/Time
EST
Temp
°C
App
Temp
°C
Dew
Point
Rel
Hum
%
Delta-T
°C
Wind Press
QNH
hPa
Press
MSL
hPa
Rain
since 9 am
mm
Dir
 
Spd
km/h
Gust
km/h
Spd
kts
Gust
kts
22/11:30pm 12.5 6.0 6.5 67 2.9 WNW 30 39 16 21 1002.1 1002.1 0.2
22/11:00pm 12.4 4.5 6.2 66 2.9 WNW 37 50 20 27 1002.4 1002.4 0.2
22/10:30pm 12.3 4.8 6.1 66 2.9 W 35 46 19 25 1002.5 1002.5 0.2
22/10:00pm 12.2 5.2 6.7 69 2.6 W 33 44 18 24 1002.5 1002.5 0.2
22/09:30pm 12.2 4.9 7.1 71 2.5 W 35 46 19 25 1002.5 1002.5 0.2
22/09:00pm 12.2 4.9 7.1 71 2.5 W 35 46 19 25 1002.4 1002.4 0.2
22/08:30pm 12.6 4.3 6.2 65 3.0 W 39 56 21 30 1002.2 1002.2 0.2
22/08:02pm 12.3 3.4 5.0 61 3.4 W 41 59 22 32 1001.8 1001.8 0.2
22/08:00pm 12.3 3.0 4.8 60 3.5 W 43 59 23 32 1001.8 1001.8 0.2
22/07:30pm 12.2 2.5 6.0 66 2.9 W 46 61 25 33 1001.6 1001.6 0.2
22/07:04pm 12.4 3.1 5.1 61 3.4 W 43 61 23 33 1001.1 1001.1 0.2
22/07:00pm 12.5 3.0 4.7 59 3.6 W 44 61 24 33 1001.0 1001.0 0.2

Other Formats:

Comma delimited format used in spreadsheet applications
http://www.bom.gov.au/fwo/IDT60801/IDT60801.94980.axf

JavaScript Object Notation format (JSON) in row-major order
http://www.bom.gov.au/fwo/IDT60801/IDT60801.94980.json